createdAt,value
2022-10-04T00:01:49.369Z,3.57
2022-10-04T00:04:19.729Z,3.10
2022-10-04T00:06:51.194Z,3.27
2022-10-04T00:09:23.369Z,3.47
2022-10-04T00:11:52.423Z,3.30
2022-10-04T00:14:23.057Z,3.50
2022-10-04T00:16:53.482Z,3.40
2022-10-04T00:19:38.818Z,3.17
2022-10-04T00:22:20.375Z,3.70
2022-10-04T00:25:22.166Z,3.67
2022-10-04T00:28:09.007Z,3.40
2022-10-04T00:30:38.792Z,3.30
2022-10-04T00:33:08.463Z,3.10
2022-10-04T00:35:50.769Z,3.27
2022-10-04T00:38:27.406Z,3.30
2022-10-04T00:40:58.591Z,2.97
2022-10-04T00:43:31.122Z,3.13
2022-10-04T00:46:01.222Z,3.40
2022-10-04T00:48:40.341Z,3.23
2022-10-04T00:51:15.722Z,3.47
2022-10-04T00:53:48.679Z,3.00
2022-10-04T00:56:19.654Z,2.93
2022-10-04T00:58:52.049Z,3.17
2022-10-04T01:01:24.150Z,3.03
2022-10-04T01:03:56.616Z,3.60
2022-10-04T01:06:26.451Z,3.10
2022-10-04T01:08:56.488Z,3.27
2022-10-04T01:11:27.300Z,3.47
2022-10-04T01:13:58.500Z,2.90
2022-10-04T01:16:27.840Z,4.90
2022-10-04T01:18:57.637Z,4.93
2022-10-04T01:21:29.430Z,5.60
2022-10-04T01:24:12.616Z,4.33
2022-10-04T01:26:43.495Z,5.60
2022-10-04T01:29:13.234Z,10.17
2022-10-04T01:31:43.010Z,8.40
2022-10-04T01:34:14.300Z,6.23
2022-10-04T01:36:42.833Z,4.20
2022-10-04T01:39:11.268Z,3.87
2022-10-04T01:41:46.175Z,3.37
2022-10-04T01:44:22.355Z,3.00
2022-10-04T01:46:51.642Z,3.67
2022-10-04T01:49:21.215Z,3.10
2022-10-04T01:51:56.457Z,2.80
2022-10-04T01:54:27.558Z,3.40
2022-10-04T01:57:00.273Z,3.33
2022-10-04T01:59:31.164Z,3.10
2022-10-04T02:02:01.987Z,2.90
2022-10-04T02:04:32.091Z,3.03
2022-10-04T02:07:02.257Z,2.83
2022-10-04T02:09:32.267Z,3.73
2022-10-04T02:12:02.304Z,3.00
2022-10-04T02:14:33.285Z,3.33
2022-10-04T02:17:03.046Z,3.10
2022-10-04T02:19:35.147Z,2.63
2022-10-04T02:22:04.374Z,3.30
2022-10-04T02:24:35.292Z,3.10
2022-10-04T02:27:06.293Z,2.90
2022-10-04T02:29:34.757Z,3.63
2022-10-04T02:32:22.701Z,3.13
2022-10-04T02:34:51.209Z,3.10
2022-10-04T02:37:19.651Z,3.67
2022-10-04T02:39:50.441Z,3.23
2022-10-04T02:42:23.598Z,3.43
2022-10-04T02:44:53.815Z,3.30
2022-10-04T02:47:23.600Z,3.93
2022-10-04T02:49:53.777Z,3.80
2022-10-04T02:52:24.519Z,3.80
2022-10-04T02:54:56.687Z,4.03
2022-10-04T02:57:26.647Z,4.00
2022-10-04T03:00:03.675Z,3.80
2022-10-04T03:02:32.815Z,3.60
2022-10-04T03:05:03.205Z,3.37
2022-10-04T03:07:33.351Z,3.80
2022-10-04T03:10:01.865Z,3.57
2022-10-04T03:12:31.964Z,4.07
2022-10-04T03:15:00.597Z,3.60
2022-10-04T03:17:30.131Z,3.67
2022-10-04T03:19:58.803Z,3.33
2022-10-04T03:22:27.158Z,3.87
2022-10-04T03:24:57.133Z,4.30
2022-10-04T03:27:27.501Z,4.10
2022-10-04T03:29:59.487Z,4.10
2022-10-04T03:32:30.730Z,4.40
2022-10-04T03:35:00.728Z,4.60
2022-10-04T03:37:31.211Z,4.33
2022-10-04T03:39:59.963Z,4.37
2022-10-04T03:42:29.859Z,4.30
2022-10-04T03:45:02.138Z,5.00
2022-10-04T03:47:32.497Z,5.10
2022-10-04T03:50:02.730Z,4.80
2022-10-04T03:52:32.605Z,4.70
2022-10-04T03:55:02.958Z,4.90
2022-10-04T03:57:31.896Z,5.33
2022-10-04T04:00:01.946Z,5.27
2022-10-04T04:02:34.359Z,4.53
2022-10-04T04:05:06.630Z,5.10
2022-10-04T04:07:38.662Z,5.03
2022-10-04T04:10:16.674Z,4.77
2022-10-04T04:12:47.937Z,4.67
2022-10-04T04:15:17.914Z,4.93
2022-10-04T04:17:47.662Z,5.30
2022-10-04T04:20:24.778Z,5.97
2022-10-04T04:23:01.658Z,6.63
2022-10-04T04:25:41.210Z,6.47
2022-10-04T04:28:15.544Z,6.20
2022-10-04T04:30:48.937Z,6.23
2022-10-04T04:33:23.620Z,6.20
2022-10-04T04:35:55.396Z,6.10
2022-10-04T04:38:24.863Z,6.70
2022-10-04T04:40:55.756Z,6.50
2022-10-04T04:43:27.418Z,7.23
2022-10-04T04:46:15.312Z,6.53
2022-10-04T04:48:48.693Z,6.60
2022-10-04T04:51:21.252Z,6.80
2022-10-04T04:53:50.248Z,7.13
2022-10-04T04:56:21.458Z,7.50
2022-10-04T04:58:51.269Z,6.77
2022-10-04T05:01:24.408Z,6.90
2022-10-04T05:04:02.936Z,6.87
2022-10-04T05:06:31.931Z,7.43
2022-10-04T05:09:00.563Z,7.20
2022-10-04T05:11:31.075Z,7.10
2022-10-04T05:14:01.851Z,7.30
2022-10-04T05:16:35.052Z,6.80
2022-10-04T05:19:07.478Z,7.20
2022-10-04T05:21:42.033Z,7.00
2022-10-04T05:24:12.960Z,7.37
2022-10-04T05:26:43.571Z,7.53
2022-10-04T05:29:12.968Z,7.30
2022-10-04T05:31:47.444Z,7.10
2022-10-04T05:34:24.732Z,7.43
2022-10-04T05:36:58.604Z,7.23
2022-10-04T05:39:29.293Z,7.10
2022-10-04T05:42:03.695Z,7.27
2022-10-04T05:44:37.068Z,7.03
2022-10-04T05:47:09.443Z,7.20
2022-10-04T05:49:44.195Z,7.37
2022-10-04T05:52:16.076Z,7.00
2022-10-04T05:54:44.544Z,6.90
2022-10-04T05:57:20.524Z,7.83
2022-10-04T06:00:06.822Z,6.80
2022-10-04T06:02:44.342Z,7.30
2022-10-04T06:05:15.806Z,7.20
2022-10-04T06:07:46.803Z,6.70
2022-10-04T06:10:29.881Z,7.43
2022-10-04T06:13:01.326Z,5.53
2022-10-04T06:15:42.076Z,6.53
2022-10-04T06:18:30.795Z,5.97
2022-10-04T06:21:11.167Z,5.63
2022-10-04T06:23:45.282Z,6.07
2022-10-04T06:26:14.543Z,5.50
2022-10-04T06:28:44.957Z,5.67
2022-10-04T06:31:24.259Z,5.73
2022-10-04T06:34:01.978Z,6.03
2022-10-04T06:36:37.437Z,5.80
2022-10-04T06:39:17.292Z,5.63
2022-10-04T06:41:56.772Z,6.13
2022-10-04T06:44:36.311Z,5.97
2022-10-04T06:47:11.742Z,6.60
2022-10-04T06:49:47.808Z,6.37
2022-10-04T06:52:43.343Z,6.57
2022-10-04T06:55:26.561Z,6.40
2022-10-04T06:58:08.671Z,6.37
2022-10-04T07:00:41.457Z,6.57
2022-10-04T07:03:12.552Z,6.80
2022-10-04T07:05:46.360Z,6.57
2022-10-04T07:08:31.133Z,6.73
2022-10-04T07:11:02.490Z,6.37
2022-10-04T07:13:34.497Z,5.90
2022-10-04T07:16:04.989Z,6.57
2022-10-04T07:18:36.118Z,6.33
2022-10-04T07:21:08.985Z,6.20
2022-10-04T07:23:39.490Z,6.27
2022-10-04T07:26:09.486Z,6.27
2022-10-04T07:28:59.638Z,5.80
2022-10-04T07:31:30.387Z,6.10
2022-10-04T07:34:01.585Z,5.70
2022-10-04T07:36:33.975Z,6.13
2022-10-04T07:39:06.355Z,6.53
2022-10-04T07:41:36.603Z,5.80
2022-10-04T07:44:08.092Z,5.80
2022-10-04T07:46:42.196Z,6.20
2022-10-04T07:49:14.863Z,5.70
2022-10-04T07:51:51.978Z,6.33
2022-10-04T07:54:24.243Z,6.13
2022-10-04T07:56:55.600Z,5.73
2022-10-04T07:59:35.579Z,6.50
2022-10-04T08:02:13.701Z,6.07
2022-10-04T08:04:46.694Z,5.80
2022-10-04T08:07:19.568Z,5.83
2022-10-04T08:10:00.734Z,6.10
2022-10-04T08:12:36.138Z,5.80
2022-10-04T08:15:17.904Z,5.20
2022-10-04T08:17:53.366Z,5.50
2022-10-04T08:20:30.747Z,6.37
2022-10-04T08:23:07.966Z,5.50
2022-10-04T08:25:44.435Z,4.93
2022-10-04T08:28:35.199Z,5.43
2022-10-04T08:31:09.755Z,5.23
2022-10-04T08:33:46.415Z,5.80
2022-10-04T08:36:22.588Z,5.37
2022-10-04T08:38:55.344Z,5.17
2022-10-04T08:41:38.685Z,5.43
2022-10-04T08:44:33.910Z,4.53
2022-10-04T08:47:22.148Z,4.83
2022-10-04T08:50:03.843Z,4.67
2022-10-04T08:52:53.920Z,4.87
2022-10-04T08:55:37.300Z,4.40
2022-10-04T08:58:23.752Z,4.33
2022-10-04T09:01:01.018Z,4.00
2022-10-04T09:04:01.677Z,3.83
2022-10-04T09:06:41.225Z,3.50
2022-10-04T09:09:35.559Z,4.23
2022-10-04T09:12:12.010Z,4.40
2022-10-04T09:14:50.169Z,4.03
2022-10-04T09:17:23.194Z,3.80
2022-10-04T09:20:26.222Z,3.97
2022-10-04T09:23:00.731Z,3.80
2022-10-04T09:25:42.620Z,3.90
2022-10-04T09:28:22.396Z,4.10
2022-10-04T09:31:03.383Z,4.17
2022-10-04T09:33:49.487Z,3.87
2022-10-04T09:36:41.545Z,3.80
2022-10-04T09:39:31.103Z,3.40
2022-10-04T09:42:09.458Z,4.25
2022-10-04T09:44:56.379Z,3.40
2022-10-04T09:47:43.670Z,3.22
2022-10-04T09:50:25.432Z,3.67
2022-10-04T09:52:57.760Z,4.05
2022-10-04T09:55:42.905Z,3.60
2022-10-04T09:58:29.487Z,3.67
2022-10-04T10:01:01.671Z,3.63
2022-10-04T10:03:47.229Z,3.75
2022-10-04T10:06:24.169Z,3.55
2022-10-04T10:09:00.236Z,3.80
2022-10-04T10:11:47.981Z,3.42
2022-10-04T10:14:30.803Z,3.47
2022-10-04T10:17:03.139Z,3.55
2022-10-04T10:19:41.619Z,3.60
2022-10-04T10:22:22.503Z,3.63
2022-10-04T10:25:04.214Z,3.55
2022-10-04T10:27:39.630Z,3.72
2022-10-04T10:30:18.516Z,3.30
2022-10-04T10:32:56.549Z,3.05
2022-10-04T10:35:34.664Z,3.15
2022-10-04T10:38:18.500Z,2.80
2022-10-04T10:41:00.342Z,3.25
2022-10-04T10:43:46.706Z,3.25
2022-10-04T10:46:32.624Z,2.70
2022-10-04T10:49:22.233Z,3.30
2022-10-04T10:52:06.641Z,3.47
2022-10-04T10:54:50.692Z,3.20
2022-10-04T10:57:30.180Z,3.55
2022-10-04T11:00:15.303Z,3.22
2022-10-04T11:03:19.301Z,3.42
2022-10-04T11:09:16.573Z,3.25
2022-10-04T11:12:12.514Z,3.30
2022-10-04T11:14:58.375Z,3.20
2022-10-04T11:17:46.785Z,3.88
2022-10-04T11:20:36.225Z,3.42
2022-10-04T11:23:22.881Z,3.40
2022-10-04T11:25:58.447Z,3.63
2022-10-04T11:28:31.358Z,3.20
2022-10-04T11:31:14.051Z,3.40
2022-10-04T11:34:01.131Z,3.65
2022-10-04T11:36:34.819Z,3.80
2022-10-04T11:39:07.916Z,3.78
2022-10-04T11:41:44.470Z,3.67
2022-10-04T11:44:31.697Z,3.17
2022-10-04T11:47:08.725Z,3.53
2022-10-04T11:49:46.617Z,3.88
2022-10-04T11:52:25.423Z,3.90
2022-10-04T11:55:14.754Z,4.10
2022-10-04T11:57:46.221Z,4.05
2022-10-04T12:00:16.922Z,4.00
2022-10-04T12:03:22.340Z,3.80
2022-10-04T12:06:09.030Z,4.00
2022-10-04T12:08:49.567Z,3.40
2022-10-04T12:11:52.962Z,3.30
2022-10-04T12:14:28.067Z,3.38
2022-10-04T12:17:08.562Z,3.42
2022-10-04T12:19:57.726Z,3.67
2022-10-04T12:22:33.975Z,3.58
2022-10-04T12:25:11.355Z,3.20
2022-10-04T12:27:57.322Z,4.03
2022-10-04T12:30:30.835Z,3.97
2022-10-04T12:33:06.837Z,4.15
2022-10-04T12:35:47.959Z,3.85
2022-10-04T12:38:23.737Z,3.65
2022-10-04T12:40:57.393Z,3.80
2022-10-04T12:43:30.234Z,3.28
2022-10-04T12:46:05.048Z,3.67
2022-10-04T12:48:45.214Z,3.80
2022-10-04T12:51:21.191Z,3.40
2022-10-04T12:53:57.949Z,3.53
2022-10-04T12:56:37.590Z,3.70
2022-10-04T12:59:15.414Z,3.70
2022-10-04T13:01:48.293Z,3.30
2022-10-04T13:07:37.186Z,3.50
2022-10-04T13:10:30.685Z,3.58
2022-10-04T13:13:08.375Z,3.65
2022-10-04T13:18:37.319Z,3.45
2022-10-04T13:21:07.698Z,3.20
2022-10-04T13:23:43.765Z,2.88
2022-10-04T13:26:24.680Z,3.20
2022-10-04T13:28:57.231Z,3.30
2022-10-04T13:31:33.110Z,3.17
2022-10-04T13:34:07.576Z,3.08
2022-10-04T13:36:41.288Z,3.50
2022-10-04T13:39:25.702Z,3.30
2022-10-04T13:42:12.900Z,3.10
2022-10-04T13:44:58.888Z,3.53
2022-10-04T13:47:36.340Z,3.85
2022-10-04T13:50:18.183Z,3.10
2022-10-04T13:53:08.669Z,3.08
2022-10-04T13:55:59.151Z,3.33
2022-10-04T13:58:33.969Z,3.40
2022-10-04T14:01:23.376Z,3.10
2022-10-04T14:03:58.065Z,3.63
2022-10-04T14:06:33.678Z,3.13
2022-10-04T14:09:10.703Z,2.97
2022-10-04T14:11:54.317Z,2.92
2022-10-04T14:14:30.312Z,3.00
2022-10-04T14:17:13.637Z,3.08
2022-10-04T14:20:06.478Z,2.78
2022-10-04T14:22:45.395Z,2.80
2022-10-04T14:25:27.932Z,2.88
2022-10-04T14:28:11.096Z,3.33
2022-10-04T14:30:51.737Z,3.47
2022-10-04T14:33:38.585Z,2.95
2022-10-04T14:36:24.143Z,2.50
2022-10-04T14:39:01.177Z,2.67
2022-10-04T14:41:45.673Z,2.70
2022-10-04T14:44:27.161Z,2.78
2022-10-04T14:47:01.767Z,2.60
2022-10-04T14:49:41.477Z,2.58
2022-10-04T14:52:20.656Z,2.50
2022-10-04T14:54:54.253Z,2.95
2022-10-04T14:57:25.347Z,2.65
2022-10-04T15:00:10.440Z,2.70
2022-10-04T15:03:13.391Z,2.53
2022-10-04T15:05:47.447Z,2.40
2022-10-04T15:08:35.996Z,2.58
2022-10-04T15:11:06.732Z,2.60
2022-10-04T15:13:37.233Z,2.88
2022-10-04T15:16:14.288Z,2.75
2022-10-04T15:18:53.734Z,2.60
2022-10-04T15:21:43.571Z,2.50
2022-10-04T15:24:27.583Z,2.78
2022-10-04T15:27:10.910Z,2.75
2022-10-04T15:29:41.651Z,2.70
2022-10-04T15:32:18.922Z,2.65
2022-10-04T15:34:58.731Z,2.40
2022-10-04T15:37:29.531Z,2.55
2022-10-04T15:40:19.598Z,2.45
2022-10-04T15:42:59.657Z,2.47
2022-10-04T15:45:37.094Z,2.28
2022-10-04T15:48:23.732Z,2.80
2022-10-04T15:51:02.118Z,2.65
2022-10-04T15:53:44.311Z,2.50
2022-10-04T15:56:15.274Z,2.50
2022-10-04T15:59:03.539Z,2.50
2022-10-04T16:01:55.969Z,2.60
2022-10-04T16:04:33.321Z,3.03
2022-10-04T16:07:12.871Z,2.35
2022-10-04T16:09:43.238Z,2.97
2022-10-04T16:12:25.204Z,2.75
2022-10-04T16:14:59.695Z,3.05
2022-10-04T16:17:45.151Z,2.80
2022-10-04T16:20:29.719Z,2.92
2022-10-04T16:23:16.571Z,2.75
2022-10-04T16:25:48.070Z,3.10
2022-10-04T16:28:24.099Z,3.00
2022-10-04T16:31:01.075Z,2.85
2022-10-04T16:33:33.177Z,2.70
2022-10-04T16:36:08.665Z,2.67
2022-10-04T16:38:58.800Z,3.08
2022-10-04T16:41:39.027Z,3.00
2022-10-04T16:44:10.606Z,3.60
2022-10-04T16:46:45.020Z,3.28
2022-10-04T16:49:21.022Z,3.78
2022-10-04T16:52:03.611Z,3.70
2022-10-04T16:54:40.068Z,3.35
2022-10-04T16:57:15.176Z,3.22
2022-10-04T16:59:47.170Z,3.17
2022-10-04T17:02:25.225Z,3.65
2022-10-04T17:04:55.775Z,3.50
2022-10-04T17:07:26.889Z,3.25
2022-10-04T17:09:57.632Z,3.22
2022-10-04T17:12:35.154Z,3.10
2022-10-04T17:15:21.619Z,3.60
2022-10-04T17:17:52.289Z,3.42
2022-10-04T17:20:29.717Z,3.55
2022-10-04T17:23:10.610Z,3.35
2022-10-04T17:25:42.865Z,3.72
2022-10-04T17:28:16.884Z,3.63
2022-10-04T17:30:47.853Z,3.40
2022-10-04T17:33:27.230Z,3.55
2022-10-04T17:36:30.598Z,3.55
2022-10-04T17:39:10.508Z,4.53
2022-10-04T17:41:46.333Z,4.38
2022-10-04T17:44:24.784Z,3.72
2022-10-04T17:46:57.599Z,3.50
2022-10-04T17:49:51.686Z,3.22
2022-10-04T17:52:42.971Z,4.05
2022-10-04T17:55:17.353Z,3.92
2022-10-04T17:57:49.359Z,4.22
2022-10-04T18:00:20.652Z,4.47
2022-10-04T18:03:04.760Z,5.22
2022-10-04T18:05:36.861Z,4.88
2022-10-04T18:08:11.954Z,5.30
2022-10-04T18:10:42.881Z,5.07
2022-10-04T18:13:14.855Z,5.18
2022-10-04T18:15:46.832Z,5.07
2022-10-04T18:18:18.798Z,5.70
2022-10-04T18:21:02.436Z,6.07
2022-10-04T18:23:31.817Z,5.30
2022-10-04T18:26:02.923Z,5.28
2022-10-04T18:28:34.849Z,5.73
2022-10-04T18:31:16.271Z,5.40
2022-10-04T18:33:49.881Z,5.70
2022-10-04T18:36:19.951Z,5.83
2022-10-04T18:39:00.682Z,6.37
2022-10-04T18:41:49.689Z,5.60
2022-10-04T18:44:19.037Z,5.00
2022-10-04T18:46:51.280Z,5.23
2022-10-04T18:49:24.722Z,5.03
2022-10-04T18:52:02.797Z,5.20
2022-10-04T18:54:34.642Z,5.17
2022-10-04T18:57:08.997Z,5.70
2022-10-04T18:59:59.808Z,5.53
2022-10-04T19:02:35.166Z,5.17
2022-10-04T19:05:07.718Z,5.27
2022-10-04T19:07:40.415Z,5.77
2022-10-04T19:10:12.753Z,5.07
2022-10-04T19:12:48.034Z,5.90
2022-10-04T19:15:24.098Z,5.30
2022-10-04T19:17:57.133Z,6.27
2022-10-04T19:20:27.942Z,7.20
2022-10-04T19:23:07.210Z,7.07
2022-10-04T19:25:39.089Z,6.50
2022-10-04T19:28:10.656Z,5.63
2022-10-04T19:31:02.180Z,6.10
2022-10-04T19:33:36.014Z,6.10
2022-10-04T19:36:12.643Z,5.87
2022-10-04T19:38:45.490Z,6.37
2022-10-04T19:41:19.010Z,6.20
2022-10-04T19:43:51.267Z,5.77
2022-10-04T19:46:25.052Z,6.27
2022-10-04T19:48:55.737Z,5.73
2022-10-04T19:51:29.375Z,6.43
2022-10-04T19:54:03.794Z,6.60
2022-10-04T19:56:42.738Z,6.20
2022-10-04T19:59:15.323Z,6.37
2022-10-04T20:01:43.783Z,6.00
2022-10-04T20:04:33.148Z,6.93
2022-10-04T20:07:02.651Z,7.53
2022-10-04T20:09:33.408Z,8.30
2022-10-04T20:12:02.398Z,6.83
2022-10-04T20:14:54.833Z,7.60
2022-10-04T20:17:33.917Z,7.63
2022-10-04T20:20:04.053Z,7.60
2022-10-04T20:22:52.902Z,7.57
2022-10-04T20:25:49.425Z,7.00
2022-10-04T20:28:40.307Z,7.10
2022-10-04T20:31:09.219Z,7.50
2022-10-04T20:33:48.028Z,7.23
2022-10-04T20:36:31.309Z,7.37
2022-10-04T20:39:00.662Z,7.43
2022-10-04T20:42:02.652Z,6.53
2022-10-04T20:44:50.668Z,5.87
2022-10-04T20:47:25.476Z,6.80
2022-10-04T20:49:57.756Z,6.67
2022-10-04T20:52:30.594Z,6.43
2022-10-04T20:55:01.361Z,7.20
2022-10-04T20:57:30.254Z,6.07
2022-10-04T21:00:00.485Z,6.87
2022-10-04T21:02:29.223Z,6.57
2022-10-04T21:05:13.139Z,7.10
2022-10-04T21:07:41.505Z,6.97
2022-10-04T21:10:17.004Z,6.43
2022-10-04T21:12:45.422Z,6.53
2022-10-04T21:15:21.711Z,7.00
2022-10-04T21:18:03.749Z,6.70
2022-10-04T21:20:47.715Z,7.73
2022-10-04T21:23:23.133Z,7.13
2022-10-04T21:25:51.887Z,7.30
2022-10-04T21:28:37.378Z,7.50
2022-10-04T21:31:07.211Z,6.70
2022-10-04T21:33:36.417Z,7.07
2022-10-04T21:36:05.245Z,6.87
2022-10-04T21:38:33.854Z,6.10
2022-10-04T21:41:02.122Z,6.50
2022-10-04T21:43:30.499Z,6.50
2022-10-04T21:45:58.807Z,6.50
2022-10-04T21:48:28.504Z,5.93
2022-10-04T21:50:57.077Z,6.20
2022-10-04T21:53:25.361Z,6.63
2022-10-04T21:55:53.615Z,6.90
2022-10-04T21:58:21.894Z,6.73
2022-10-04T22:00:50.431Z,6.50
2022-10-04T22:03:18.888Z,6.63
2022-10-04T22:05:48.569Z,7.00
2022-10-04T22:08:16.836Z,7.23
2022-10-04T22:10:45.654Z,6.40
2022-10-04T22:13:14.183Z,6.57
2022-10-04T22:15:42.547Z,7.60
2022-10-04T22:18:11.073Z,6.67
2022-10-04T22:20:39.433Z,7.00
2022-10-04T22:23:12.987Z,7.00
2022-10-04T22:25:41.932Z,6.47
2022-10-04T22:28:15.428Z,6.90
2022-10-04T22:30:45.749Z,7.10
2022-10-04T22:33:24.580Z,7.20
2022-10-04T22:35:52.841Z,7.00
2022-10-04T22:38:22.574Z,6.60
2022-10-04T22:40:50.829Z,6.80
2022-10-04T22:43:19.248Z,7.03
2022-10-04T22:45:47.642Z,7.20
2022-10-04T22:48:17.051Z,7.00
2022-10-04T22:50:45.404Z,6.63
2022-10-04T22:53:15.459Z,6.80
2022-10-04T22:55:45.145Z,7.00
2022-10-04T22:58:14.816Z,7.03
2022-10-04T23:00:43.969Z,7.13
2022-10-04T23:03:19.955Z,6.80
2022-10-04T23:05:48.289Z,7.23
2022-10-04T23:08:17.825Z,6.67
2022-10-04T23:10:47.653Z,7.10
2022-10-04T23:13:15.948Z,6.77
2022-10-04T23:15:44.342Z,6.80
2022-10-04T23:18:15.264Z,6.63
2022-10-04T23:20:43.663Z,6.83
2022-10-04T23:23:17.123Z,6.60
2022-10-04T23:25:47.126Z,6.97
2022-10-04T23:28:16.484Z,7.27
2022-10-04T23:30:45.566Z,6.77
2022-10-04T23:33:16.110Z,7.00
2022-10-04T23:35:44.383Z,6.80
2022-10-04T23:38:14.781Z,7.10
2022-10-04T23:40:43.419Z,7.20
2022-10-04T23:43:17.539Z,7.03
2022-10-04T23:45:45.833Z,7.13
2022-10-04T23:48:23.767Z,7.23
2022-10-04T23:50:52.443Z,7.40
2022-10-04T23:53:23.662Z,7.63
2022-10-04T23:55:51.947Z,7.50
2022-10-04T23:58:22.847Z,7.80
